createdAt,value
2022-12-22T00:02:38.621Z,10.15
2022-12-22T00:05:44.588Z,9.35
2022-12-22T00:08:30.297Z,10.77
2022-12-22T00:11:17.535Z,8.13
2022-12-22T00:14:04.949Z,9.43
2022-12-22T00:16:53.783Z,8.80
2022-12-22T00:19:39.447Z,10.27
2022-12-22T00:22:41.531Z,12.27
2022-12-22T00:25:32.664Z,9.95
2022-12-22T00:28:18.286Z,8.32
2022-12-22T00:31:05.082Z,10.65
2022-12-22T00:33:50.736Z,12.27
2022-12-22T00:36:38.780Z,9.15
2022-12-22T00:39:31.875Z,6.43
2022-12-22T00:42:17.577Z,9.75
2022-12-22T00:45:02.751Z,6.90
2022-12-22T00:47:48.992Z,9.00
2022-12-22T00:50:35.485Z,8.73
2022-12-22T00:53:21.663Z,8.45
2022-12-22T00:56:07.324Z,16.58
2022-12-22T00:58:54.244Z,9.48
2022-12-22T01:01:39.642Z,7.18
2022-12-22T01:04:27.938Z,7.63
2022-12-22T01:07:13.508Z,9.57
2022-12-22T01:09:59.536Z,8.00
2022-12-22T01:12:46.683Z,9.30
2022-12-22T01:15:38.333Z,6.80
2022-12-22T01:18:24.669Z,7.53
2022-12-22T01:21:10.545Z,8.82
2022-12-22T01:23:56.468Z,5.90
2022-12-22T01:26:41.620Z,8.43
2022-12-22T01:29:26.961Z,9.50
2022-12-22T01:32:12.204Z,8.45
2022-12-22T01:34:57.462Z,7.25
2022-12-22T01:37:42.761Z,10.93
2022-12-22T01:40:37.883Z,7.15
2022-12-22T01:43:42.780Z,6.18
2022-12-22T01:47:04.946Z,7.57
2022-12-22T01:50:02.919Z,8.07
2022-12-22T01:52:53.875Z,6.45
2022-12-22T01:55:43.103Z,8.20
2022-12-22T01:58:41.783Z,8.18
2022-12-22T02:01:27.476Z,7.68
2022-12-22T02:04:13.349Z,8.55
2022-12-22T02:07:01.749Z,7.50
2022-12-22T02:10:15.506Z,8.35
2022-12-22T02:13:30.527Z,9.50
2022-12-22T02:16:37.565Z,11.15
2022-12-22T02:20:10.309Z,10.07
2022-12-22T02:23:34.679Z,9.85
2022-12-22T02:26:42.297Z,11.00
2022-12-22T02:29:29.553Z,15.25
2022-12-22T02:32:15.794Z,10.25
2022-12-22T02:35:01.539Z,13.52
2022-12-22T02:38:04.439Z,11.80
2022-12-22T02:41:13.463Z,13.18
2022-12-22T02:44:34.500Z,11.90
2022-12-22T02:47:36.907Z,15.80
2022-12-22T02:50:38.216Z,14.38
2022-12-22T02:53:25.456Z,15.18
2022-12-22T02:56:18.635Z,12.32
2022-12-22T03:01:49.374Z,14.18
2022-12-22T03:04:34.731Z,9.65
2022-12-22T03:07:20.114Z,14.70
2022-12-22T03:10:05.439Z,9.98
2022-12-22T03:12:50.671Z,10.48
2022-12-22T03:15:35.758Z,8.98
2022-12-22T03:18:27.396Z,11.32
2022-12-22T03:21:13.682Z,10.75
2022-12-22T03:23:59.402Z,11.85
2022-12-22T03:26:27.145Z,10.50
2022-12-22T03:28:53.897Z,10.38
2022-12-22T03:31:20.889Z,11.55
2022-12-22T03:33:48.337Z,10.45
2022-12-22T03:36:15.091Z,11.35
2022-12-22T03:38:41.837Z,12.30
2022-12-22T03:41:28.679Z,9.95
2022-12-22T03:44:14.249Z,9.77
2022-12-22T03:46:41.003Z,8.45
2022-12-22T03:49:10.496Z,8.82
2022-12-22T03:51:48.942Z,11.57
2022-12-22T03:54:19.153Z,14.85
2022-12-22T03:56:47.013Z,9.65
2022-12-22T03:59:14.452Z,9.25
2022-12-22T04:01:46.159Z,8.32
2022-12-22T04:04:15.527Z,10.68
2022-12-22T04:06:42.522Z,10.77
2022-12-22T04:09:09.812Z,9.13
2022-12-22T04:11:55.787Z,11.05
2022-12-22T04:14:26.622Z,9.20
2022-12-22T04:16:58.364Z,10.05
2022-12-22T04:19:25.378Z,8.13
2022-12-22T04:21:52.163Z,5.80
2022-12-22T04:24:18.981Z,7.35
2022-12-22T04:26:45.789Z,7.38
2022-12-22T04:29:12.549Z,4.63
2022-12-22T04:31:39.333Z,6.13
2022-12-22T04:34:06.977Z,6.28
2022-12-22T04:36:33.745Z,6.43
2022-12-22T04:39:00.562Z,5.07
2022-12-22T04:41:27.313Z,3.65
2022-12-22T04:43:54.106Z,7.03
2022-12-22T04:46:21.025Z,5.55
2022-12-22T04:48:47.827Z,7.80
2022-12-22T04:51:14.626Z,5.85
2022-12-22T04:53:41.362Z,6.32
2022-12-22T04:56:08.848Z,3.55
2022-12-22T04:58:36.221Z,4.18
2022-12-22T05:01:13.345Z,3.58
2022-12-22T05:03:40.266Z,2.90
2022-12-22T05:06:07.594Z,2.40
2022-12-22T05:08:34.787Z,3.22
2022-12-22T05:11:03.085Z,5.40
2022-12-22T05:13:31.503Z,4.25
2022-12-22T05:16:16.201Z,3.15
2022-12-22T05:18:45.116Z,3.45
2022-12-22T05:21:19.248Z,1.88
2022-12-22T05:23:46.287Z,1.88
2022-12-22T05:26:15.075Z,1.17
2022-12-22T05:28:43.403Z,3.22
2022-12-22T05:31:20.307Z,4.05
2022-12-22T05:33:47.722Z,1.92
2022-12-22T05:36:15.292Z,2.92
2022-12-22T05:38:42.534Z,1.67
2022-12-22T05:41:09.357Z,2.90
2022-12-22T05:43:36.844Z,1.58
2022-12-22T05:46:10.089Z,0.98
2022-12-22T05:48:39.331Z,1.58
2022-12-22T05:51:08.349Z,2.78
2022-12-22T05:53:35.311Z,1.65
2022-12-22T05:56:02.091Z,1.45
2022-12-22T05:58:28.899Z,8.10
2022-12-22T06:00:59.864Z,3.17
2022-12-22T06:03:27.586Z,2.30
2022-12-22T06:05:54.772Z,5.57
2022-12-22T06:08:22.448Z,1.77
2022-12-22T06:10:49.413Z,3.72
2022-12-22T06:13:16.654Z,0.80
2022-12-22T06:15:43.405Z,2.47
2022-12-22T06:18:10.201Z,2.10
2022-12-22T06:20:36.993Z,3.13
2022-12-22T06:23:03.846Z,2.55
2022-12-22T06:25:30.669Z,1.92
2022-12-22T06:27:57.531Z,7.95
2022-12-22T06:30:30.992Z,1.58
2022-12-22T06:33:01.002Z,0.95
2022-12-22T06:35:30.802Z,0.90
2022-12-22T06:37:57.531Z,4.80
2022-12-22T06:40:24.290Z,3.08
2022-12-22T06:43:09.839Z,6.65
2022-12-22T06:48:09.591Z,5.20
2022-12-22T06:50:36.481Z,2.72
2022-12-22T06:53:04.287Z,1.08
2022-12-22T06:55:31.180Z,2.92
2022-12-22T06:57:58.068Z,1.60
2022-12-22T07:00:25.180Z,1.23
2022-12-22T07:02:52.207Z,4.60
2022-12-22T07:05:19.184Z,7.25
2022-12-22T07:07:46.125Z,8.18
2022-12-22T07:10:13.219Z,3.40
2022-12-22T07:12:39.956Z,14.38
2022-12-22T07:15:09.215Z,6.95
2022-12-22T07:17:35.968Z,6.97
2022-12-22T07:20:02.917Z,3.58
2022-12-22T07:22:30.990Z,7.18
2022-12-22T07:24:58.931Z,8.00
2022-12-22T07:27:25.908Z,13.20
2022-12-22T07:29:52.695Z,15.73
2022-12-22T07:32:19.468Z,15.20
2022-12-22T07:34:46.510Z,12.38
2022-12-22T07:37:13.950Z,11.60
2022-12-22T07:39:40.815Z,3.53
2022-12-22T07:42:27.410Z,7.00
2022-12-22T07:44:54.148Z,12.15
2022-12-22T07:47:20.905Z,5.00
2022-12-22T07:50:06.216Z,4.82
2022-12-22T07:52:33.070Z,4.07
2022-12-22T07:55:00.061Z,4.53
2022-12-22T07:57:26.828Z,3.85
2022-12-22T07:59:53.852Z,4.75
2022-12-22T08:02:20.708Z,8.00
2022-12-22T08:04:47.682Z,3.05
2022-12-22T08:07:14.440Z,9.35
2022-12-22T08:09:41.203Z,8.20
2022-12-22T08:12:08.165Z,5.40
2022-12-22T08:14:34.998Z,6.80
2022-12-22T08:17:01.752Z,6.35
2022-12-22T08:19:28.633Z,20.58
2022-12-22T08:21:55.419Z,48.70
2022-12-22T08:24:22.311Z,30.05
2022-12-22T08:26:55.399Z,17.63
2022-12-22T08:29:28.916Z,4.82
2022-12-22T08:31:55.910Z,15.68
2022-12-22T08:34:22.917Z,10.77
2022-12-22T08:36:55.340Z,21.20
2022-12-22T08:39:24.029Z,15.93
2022-12-22T08:41:51.004Z,12.45
2022-12-22T08:44:27.969Z,11.38
2022-12-22T08:46:58.016Z,9.43
2022-12-22T08:49:26.181Z,6.47
2022-12-22T08:51:53.699Z,3.95
2022-12-22T08:54:21.286Z,4.80
2022-12-22T08:56:48.246Z,3.90
2022-12-22T08:59:15.131Z,6.93
2022-12-22T09:01:50.655Z,4.47
2022-12-22T09:04:21.293Z,4.50
2022-12-22T09:06:49.163Z,6.07
2022-12-22T09:09:16.695Z,3.88
2022-12-22T09:11:44.291Z,4.82
2022-12-22T09:14:12.305Z,3.55
2022-12-22T09:16:40.273Z,2.28
2022-12-22T09:19:08.122Z,6.18
2022-12-22T09:21:36.375Z,3.85
2022-12-22T09:24:04.672Z,3.80
2022-12-22T09:26:32.536Z,4.53
2022-12-22T09:28:59.351Z,8.35
2022-12-22T09:31:27.644Z,3.50
2022-12-22T09:33:54.821Z,8.00
2022-12-22T09:36:29.681Z,7.68
2022-12-22T09:38:57.097Z,9.55
2022-12-22T09:41:43.545Z,6.82
2022-12-22T09:44:27.845Z,5.20
2022-12-22T09:47:01.072Z,6.13
2022-12-22T09:49:28.439Z,6.80
2022-12-22T09:52:01.621Z,3.55
2022-12-22T09:54:30.493Z,7.50
2022-12-22T09:56:58.364Z,6.90
2022-12-22T09:59:29.277Z,1.90
2022-12-22T10:02:14.986Z,6.80
2022-12-22T10:05:32.833Z,6.18
2022-12-22T10:08:06.259Z,4.97
2022-12-22T10:10:33.020Z,8.68
2022-12-22T10:13:02.703Z,4.60
2022-12-22T10:15:41.830Z,7.43
2022-12-22T10:18:25.829Z,7.28
2022-12-22T10:21:14.352Z,10.05
2022-12-22T10:23:46.315Z,6.07
2022-12-22T10:26:31.467Z,10.95
2022-12-22T10:29:13.840Z,4.70
2022-12-22T10:32:12.007Z,9.13
2022-12-22T10:35:03.114Z,6.25
2022-12-22T10:37:36.765Z,12.15
2022-12-22T10:40:19.895Z,10.45
2022-12-22T10:42:56.031Z,2.58
2022-12-22T10:45:26.788Z,5.32
2022-12-22T10:47:57.021Z,2.75
2022-12-22T10:50:24.025Z,4.90
2022-12-22T10:52:57.010Z,10.90
2022-12-22T10:58:15.648Z,6.63
2022-12-22T11:00:42.794Z,2.45
2022-12-22T11:03:20.644Z,5.78
2022-12-22T11:05:49.297Z,8.80
2022-12-22T11:08:20.750Z,4.72
2022-12-22T11:11:04.277Z,5.68
2022-12-22T11:13:49.064Z,3.05
2022-12-22T11:16:59.801Z,5.75
2022-12-22T11:19:36.706Z,4.65
2022-12-22T11:22:40.351Z,7.30
2022-12-22T11:25:18.786Z,3.13
2022-12-22T11:28:28.644Z,3.70
2022-12-22T11:31:16.992Z,6.82
2022-12-22T11:34:20.682Z,1.90
2022-12-22T11:37:05.238Z,5.57
2022-12-22T11:40:06.755Z,4.85
2022-12-22T11:42:55.954Z,2.00
2022-12-22T11:45:51.026Z,4.05
2022-12-22T11:48:49.998Z,5.15
2022-12-22T11:51:55.236Z,4.13
2022-12-22T11:54:58.712Z,4.32
2022-12-22T11:58:09.922Z,4.68
2022-12-22T12:04:16.937Z,4.35
2022-12-22T12:06:56.362Z,5.30
2022-12-22T12:09:43.823Z,3.28
2022-12-22T12:12:28.039Z,2.10
2022-12-22T12:15:39.181Z,4.40
2022-12-22T12:18:30.569Z,4.30
2022-12-22T12:21:06.949Z,9.82
2022-12-22T12:23:56.496Z,8.15
2022-12-22T12:26:26.545Z,11.52
2022-12-22T12:29:40.928Z,6.68
2022-12-22T12:32:21.794Z,4.50
2022-12-22T12:34:54.865Z,4.90
2022-12-22T12:37:29.425Z,6.93
2022-12-22T12:40:16.903Z,3.22
2022-12-22T12:42:46.688Z,5.95
2022-12-22T12:45:49.411Z,8.48
2022-12-22T12:48:22.227Z,2.13
2022-12-22T12:50:57.063Z,4.40
2022-12-22T12:53:26.149Z,2.40
2022-12-22T12:55:55.168Z,10.35
2022-12-22T12:58:39.946Z,10.00
2022-12-22T13:01:56.291Z,3.55
2022-12-22T13:05:11.652Z,7.70
2022-12-22T13:08:18.543Z,7.03
2022-12-22T13:10:54.347Z,9.18
2022-12-22T13:13:24.117Z,6.18
2022-12-22T13:16:10.804Z,2.85
2022-12-22T13:18:49.477Z,11.05
2022-12-22T13:21:52.510Z,18.52
2022-12-22T13:24:29.924Z,13.48
2022-12-22T13:27:04.460Z,8.55
2022-12-22T13:29:42.921Z,12.88
2022-12-22T13:32:30.516Z,10.95
2022-12-22T13:35:30.975Z,4.55
2022-12-22T13:37:59.315Z,3.00
2022-12-22T13:40:41.981Z,7.75
2022-12-22T13:43:18.063Z,12.93
2022-12-22T13:45:51.323Z,7.70
2022-12-22T13:48:23.398Z,7.53
2022-12-22T13:51:00.977Z,10.93
2022-12-22T13:54:06.864Z,3.85
2022-12-22T13:56:26.105Z,11.70
2022-12-22T13:59:00.572Z,11.32
2022-12-22T14:01:27.532Z,14.10
2022-12-22T14:04:03.634Z,7.38
2022-12-22T14:06:40.008Z,12.05
2022-12-22T14:09:18.609Z,7.40
2022-12-22T14:12:08.460Z,7.93
2022-12-22T14:14:45.928Z,5.18
2022-12-22T14:17:32.595Z,10.48
2022-12-22T14:20:03.987Z,6.70
2022-12-22T14:22:44.195Z,7.53
2022-12-22T14:25:21.771Z,9.35
2022-12-22T14:27:53.304Z,3.63
2022-12-22T14:30:24.197Z,5.38
2022-12-22T14:32:56.825Z,3.65
2022-12-22T14:35:26.600Z,7.20
2022-12-22T14:38:07.771Z,7.07
2022-12-22T14:40:45.335Z,5.10
2022-12-22T14:43:18.016Z,9.25
2022-12-22T14:45:50.542Z,8.85
2022-12-22T14:48:26.227Z,13.40
2022-12-22T14:50:54.317Z,11.13
2022-12-22T14:53:45.053Z,10.32
2022-12-22T14:56:17.885Z,5.38
2022-12-22T14:58:46.483Z,11.32
2022-12-22T15:01:30.074Z,9.30
2022-12-22T15:04:18.983Z,7.93
2022-12-22T15:06:48.230Z,3.15
2022-12-22T15:09:14.904Z,11.00
2022-12-22T15:11:57.373Z,5.47
2022-12-22T15:14:27.099Z,8.90
2022-12-22T15:17:01.895Z,6.53
2022-12-22T15:19:33.407Z,10.30
2022-12-22T15:22:00.663Z,6.40
2022-12-22T15:24:27.648Z,9.20
2022-12-22T15:26:54.431Z,5.70
2022-12-22T15:29:21.237Z,5.00
2022-12-22T15:31:48.077Z,4.50
2022-12-22T15:34:23.705Z,2.25
2022-12-22T15:36:51.017Z,9.43
2022-12-22T15:39:20.241Z,6.85
2022-12-22T15:41:47.553Z,6.00
2022-12-22T15:44:14.642Z,3.03
2022-12-22T15:46:45.362Z,2.05
2022-12-22T15:49:18.505Z,3.75
2022-12-22T15:51:50.268Z,9.60
2022-12-22T15:54:18.181Z,4.40
2022-12-22T15:56:46.049Z,13.02
2022-12-22T15:59:24.240Z,3.30
2022-12-22T16:01:56.535Z,3.35
2022-12-22T16:04:28.499Z,8.27
2022-12-22T16:06:56.033Z,8.32
2022-12-22T16:09:31.440Z,5.28
2022-12-22T16:11:58.823Z,5.65
2022-12-22T16:14:25.612Z,7.38
2022-12-22T16:16:52.455Z,6.60
2022-12-22T16:19:19.542Z,6.13
2022-12-22T16:21:49.701Z,9.48
2022-12-22T16:24:44.206Z,6.22
2022-12-22T16:27:15.024Z,7.43
2022-12-22T16:29:47.919Z,6.00
2022-12-22T16:32:28.678Z,11.50
2022-12-22T16:35:18.698Z,15.63
2022-12-22T16:37:46.533Z,13.70
2022-12-22T16:40:14.338Z,8.90
2022-12-22T16:45:49.088Z,19.58
2022-12-22T16:48:30.544Z,14.32
2022-12-22T16:50:57.418Z,9.32
2022-12-22T16:53:24.242Z,9.68
2022-12-22T16:55:51.002Z,11.88
2022-12-22T16:58:17.863Z,14.77
2022-12-22T17:00:45.513Z,11.32
2022-12-22T17:03:43.243Z,10.77
2022-12-22T17:06:11.088Z,4.57
2022-12-22T17:08:42.408Z,15.35
2022-12-22T17:11:17.517Z,8.20
2022-12-22T17:13:44.301Z,8.73
2022-12-22T17:16:22.283Z,6.60
2022-12-22T17:18:49.818Z,14.23
2022-12-22T17:21:19.207Z,8.73
2022-12-22T17:23:52.250Z,12.48
2022-12-22T17:28:49.479Z,9.27
2022-12-22T17:31:19.914Z,10.48
2022-12-22T17:33:47.271Z,7.65
2022-12-22T17:36:35.433Z,7.47
2022-12-22T17:39:03.772Z,12.18
2022-12-22T17:41:30.670Z,16.38
2022-12-22T17:43:57.693Z,25.15
2022-12-22T17:46:24.627Z,26.17
2022-12-22T17:48:51.446Z,15.95
2022-12-22T17:51:25.129Z,29.52
2022-12-22T17:53:55.042Z,20.92
2022-12-22T17:56:25.060Z,14.27
2022-12-22T17:58:52.285Z,13.65
2022-12-22T18:01:27.235Z,8.13
2022-12-22T18:03:54.626Z,8.82
2022-12-22T18:06:26.820Z,10.13
2022-12-22T18:08:55.496Z,12.40
2022-12-22T18:11:24.123Z,13.27
2022-12-22T18:13:52.576Z,19.25
2022-12-22T18:16:21.598Z,30.88
2022-12-22T18:18:48.506Z,20.73
2022-12-22T18:21:22.030Z,18.58
2022-12-22T18:23:51.208Z,12.85
2022-12-22T18:26:27.557Z,12.23
2022-12-22T18:28:55.584Z,11.73
2022-12-22T18:31:24.069Z,12.98
2022-12-22T18:33:51.762Z,11.25
2022-12-22T18:36:40.202Z,16.58
2022-12-22T18:39:11.848Z,14.52
2022-12-22T18:41:41.813Z,14.13
2022-12-22T18:44:18.862Z,14.13
2022-12-22T18:46:46.687Z,8.55
2022-12-22T18:49:13.570Z,11.85
2022-12-22T18:51:40.725Z,5.40
2022-12-22T18:54:21.954Z,13.80
2022-12-22T18:56:49.402Z,10.02
2022-12-22T18:59:31.322Z,13.23
2022-12-22T19:02:19.434Z,11.90
2022-12-22T19:04:46.356Z,7.70
2022-12-22T19:07:22.928Z,12.73
2022-12-22T19:09:50.534Z,7.35
2022-12-22T19:12:22.109Z,5.90
2022-12-22T19:14:52.752Z,10.95
2022-12-22T19:17:24.475Z,6.03
2022-12-22T19:19:51.240Z,4.63
2022-12-22T19:22:17.962Z,6.53
2022-12-22T19:24:45.694Z,6.38
2022-12-22T19:27:22.211Z,15.10
2022-12-22T19:29:49.453Z,25.45
2022-12-22T19:32:28.533Z,6.47
2022-12-22T19:34:55.579Z,5.22
2022-12-22T19:37:22.439Z,11.82
2022-12-22T19:39:49.244Z,9.60
2022-12-22T19:42:20.325Z,11.40
2022-12-22T19:44:47.331Z,11.60
2022-12-22T19:47:19.666Z,13.40
2022-12-22T19:49:48.354Z,13.18
2022-12-22T19:52:15.253Z,8.50
2022-12-22T19:54:41.987Z,6.13
2022-12-22T19:57:17.727Z,7.70
2022-12-22T19:59:48.294Z,6.10
2022-12-22T20:02:21.527Z,10.30
2022-12-22T20:04:49.502Z,17.83
2022-12-22T20:07:18.803Z,18.30
2022-12-22T20:09:45.740Z,13.02
2022-12-22T20:12:33.943Z,14.68
2022-12-22T20:15:02.048Z,5.57
2022-12-22T20:17:28.863Z,5.05
2022-12-22T20:19:55.630Z,6.82
2022-12-22T20:22:23.512Z,5.88
2022-12-22T20:24:54.532Z,6.53
2022-12-22T20:27:35.324Z,5.07
2022-12-22T20:30:02.077Z,6.05
2022-12-22T20:32:28.999Z,4.90
2022-12-22T20:34:56.283Z,2.92
2022-12-22T20:37:23.167Z,3.30
2022-12-22T20:39:49.939Z,4.97
2022-12-22T20:42:22.989Z,5.15
2022-12-22T20:47:32.724Z,5.35
2022-12-22T20:49:59.762Z,30.33
2022-12-22T20:52:26.582Z,23.35
2022-12-22T20:54:53.348Z,6.00
2022-12-22T20:57:23.319Z,13.98
2022-12-22T20:59:56.198Z,3.40
2022-12-22T21:02:28.084Z,5.38
2022-12-22T21:04:55.681Z,8.25
2022-12-22T21:07:22.436Z,5.10
2022-12-22T21:09:49.249Z,3.08
2022-12-22T21:12:16.061Z,7.53
2022-12-22T21:14:42.875Z,8.98
2022-12-22T21:17:17.495Z,6.35
2022-12-22T21:19:44.704Z,3.25
2022-12-22T21:22:11.612Z,2.97
2022-12-22T21:24:38.654Z,2.80
2022-12-22T21:27:05.689Z,7.35
2022-12-22T21:29:32.607Z,3.63
2022-12-22T21:31:59.391Z,4.50
2022-12-22T21:34:26.167Z,5.65
2022-12-22T21:37:00.259Z,9.55
2022-12-22T21:39:33.410Z,6.60
2022-12-22T21:42:00.219Z,10.70
2022-12-22T21:44:28.533Z,3.95
2022-12-22T21:46:56.569Z,4.40
2022-12-22T21:49:28.154Z,6.20
2022-12-22T21:51:55.536Z,4.30
2022-12-22T21:54:24.948Z,8.52
2022-12-22T21:56:53.102Z,9.77
2022-12-22T21:59:20.412Z,7.65
2022-12-22T22:01:47.867Z,2.30
2022-12-22T22:04:15.105Z,2.15
2022-12-22T22:06:41.866Z,7.80
2022-12-22T22:09:08.696Z,13.38
2022-12-22T22:11:58.735Z,5.43
2022-12-22T22:14:26.850Z,2.85
2022-12-22T22:16:54.180Z,3.38
2022-12-22T22:19:20.988Z,5.05
2022-12-22T22:21:47.746Z,6.78
2022-12-22T22:24:14.876Z,2.25
2022-12-22T22:26:45.798Z,2.15
2022-12-22T22:29:12.701Z,4.22
2022-12-22T22:31:40.400Z,1.73
2022-12-22T22:34:07.283Z,4.38
2022-12-22T22:36:34.124Z,6.50
2022-12-22T22:39:00.922Z,2.15
2022-12-22T22:41:29.284Z,3.35
2022-12-22T22:43:56.067Z,2.22
2022-12-22T22:46:22.970Z,1.25
2022-12-22T22:48:50.538Z,0.60
2022-12-22T22:51:17.309Z,3.63
2022-12-22T22:53:44.178Z,4.22
2022-12-22T22:56:10.922Z,1.52
2022-12-22T22:58:37.675Z,2.33
2022-12-22T23:01:10.575Z,2.08
2022-12-22T23:03:38.073Z,2.35
2022-12-22T23:06:09.026Z,2.85
2022-12-22T23:08:36.485Z,4.57
2022-12-22T23:11:04.497Z,2.22
2022-12-22T23:13:31.845Z,2.92
2022-12-22T23:16:02.376Z,1.23
2022-12-22T23:18:30.602Z,1.73
2022-12-22T23:20:59.329Z,3.95
2022-12-22T23:23:26.117Z,5.28
2022-12-22T23:25:53.026Z,5.47
2022-12-22T23:28:20.583Z,1.65
2022-12-22T23:30:50.790Z,2.42
2022-12-22T23:33:19.812Z,4.97
2022-12-22T23:35:49.259Z,2.75
2022-12-22T23:38:18.446Z,3.33
2022-12-22T23:40:53.909Z,2.05
2022-12-22T23:43:21.199Z,1.30
2022-12-22T23:45:47.971Z,3.10
2022-12-22T23:48:15.141Z,2.55
2022-12-22T23:50:42.247Z,6.15
2022-12-22T23:53:09.122Z,3.40
2022-12-22T23:55:35.867Z,2.28
2022-12-22T23:58:02.710Z,3.72
